createdAt,value
2022-08-22T00:00:14.037Z,99.90
2022-08-22T00:02:57.439Z,99.90
2022-08-22T00:06:24.553Z,99.90
2022-08-22T00:08:57.642Z,99.90
2022-08-22T00:11:31.482Z,99.90
2022-08-22T00:14:40.695Z,99.90
2022-08-22T00:17:26.275Z,99.90
2022-08-22T00:20:02.089Z,99.90
2022-08-22T00:22:53.509Z,99.90
2022-08-22T00:25:35.587Z,99.90
2022-08-22T00:28:41.932Z,99.90
2022-08-22T00:31:43.854Z,99.90
2022-08-22T00:34:32.571Z,99.90
2022-08-22T00:37:03.520Z,99.90
2022-08-22T00:39:39.394Z,99.90
2022-08-22T00:42:44.444Z,99.90
2022-08-22T00:45:31.672Z,99.90
2022-08-22T00:48:19.518Z,99.90
2022-08-22T00:51:22.547Z,99.90
2022-08-22T00:53:57.331Z,99.90
2022-08-22T00:56:31.899Z,99.90
2022-08-22T00:59:36.928Z,99.90
2022-08-22T01:02:18.789Z,99.90
2022-08-22T01:05:10.476Z,99.90
2022-08-22T01:07:43.204Z,99.90
2022-08-22T01:10:23.955Z,99.90
2022-08-22T01:13:12.969Z,99.90
2022-08-22T01:15:42.414Z,99.90
2022-08-22T01:18:21.097Z,99.90
2022-08-22T01:21:09.687Z,99.90
2022-08-22T01:24:06.444Z,99.90
2022-08-22T01:26:52.092Z,99.90
2022-08-22T01:29:46.902Z,99.90
2022-08-22T01:32:39.835Z,99.90
2022-08-22T01:35:06.739Z,99.90
2022-08-22T01:37:43.847Z,99.90
2022-08-22T01:40:25.684Z,99.90
2022-08-22T01:43:20.374Z,99.90
2022-08-22T01:46:28.587Z,99.90
2022-08-22T01:49:05.679Z,99.90
2022-08-22T01:52:11.861Z,99.90
2022-08-22T01:55:06.739Z,99.90
2022-08-22T01:57:56.059Z,99.90
2022-08-22T02:00:34.814Z,99.90
2022-08-22T02:03:19.550Z,99.90
2022-08-22T02:05:53.460Z,99.90
2022-08-22T02:08:44.961Z,99.90
2022-08-22T02:11:38.562Z,99.90
2022-08-22T02:14:25.614Z,99.90
2022-08-22T02:17:08.897Z,99.90
2022-08-22T02:19:46.953Z,99.90
2022-08-22T02:22:31.880Z,99.90
2022-08-22T02:25:10.980Z,99.90
2022-08-22T02:27:52.261Z,99.90
2022-08-22T02:30:26.125Z,99.90
2022-08-22T02:33:13.092Z,99.90
2022-08-22T02:35:54.537Z,99.90
2022-08-22T02:38:38.899Z,99.90
2022-08-22T02:41:20.889Z,99.90
2022-08-22T02:43:54.025Z,99.90
2022-08-22T02:47:01.685Z,99.90
2022-08-22T02:49:43.781Z,99.90
2022-08-22T02:52:18.569Z,99.90
2022-08-22T02:55:03.765Z,99.90
2022-08-22T02:57:39.473Z,99.90
2022-08-22T03:00:27.659Z,99.90
2022-08-22T03:02:59.908Z,99.90
2022-08-22T03:05:38.682Z,99.90
2022-08-22T03:08:26.017Z,99.90
2022-08-22T03:11:21.385Z,99.90
2022-08-22T03:14:03.122Z,99.90
2022-08-22T03:16:45.067Z,99.90
2022-08-22T03:19:38.105Z,99.90
2022-08-22T03:22:28.504Z,99.90
2022-08-22T03:25:08.160Z,99.90
2022-08-22T03:28:00.367Z,99.90
2022-08-22T03:30:58.418Z,99.90
2022-08-22T03:33:30.692Z,99.90
2022-08-22T03:36:05.056Z,99.90
2022-08-22T03:38:34.905Z,99.90
2022-08-22T03:41:20.461Z,99.90
2022-08-22T03:44:07.122Z,99.90
2022-08-22T03:46:55.870Z,99.90
2022-08-22T03:49:44.704Z,99.90
2022-08-22T03:52:30.051Z,99.90
2022-08-22T03:55:30.166Z,99.90
2022-08-22T03:58:19.137Z,99.90
2022-08-22T04:01:19.642Z,99.90
2022-08-22T04:04:04.003Z,99.90
2022-08-22T04:06:53.738Z,99.90
2022-08-22T04:10:05.686Z,99.90
2022-08-22T04:12:47.591Z,99.90
2022-08-22T04:15:31.315Z,99.90
2022-08-22T04:18:16.664Z,99.90
2022-08-22T04:20:44.057Z,99.90
2022-08-22T04:23:36.993Z,99.90
2022-08-22T04:26:14.078Z,99.90
2022-08-22T04:28:50.895Z,99.90
2022-08-22T04:31:33.792Z,99.90
2022-08-22T04:34:11.890Z,99.90
2022-08-22T04:36:48.252Z,99.90
2022-08-22T04:39:34.830Z,99.90
2022-08-22T04:42:47.909Z,99.90
2022-08-22T04:45:25.739Z,99.90
2022-08-22T04:48:26.086Z,99.90
2022-08-22T04:51:06.291Z,99.90
2022-08-22T04:53:52.192Z,99.90
2022-08-22T04:56:22.276Z,99.90
2022-08-22T04:58:51.151Z,99.90
2022-08-22T05:01:18.161Z,99.90
2022-08-22T05:04:12.728Z,99.90
2022-08-22T05:06:44.750Z,99.90
2022-08-22T05:09:17.316Z,99.90
2022-08-22T05:11:47.791Z,99.90
2022-08-22T05:14:24.763Z,99.90
2022-08-22T05:16:58.704Z,99.90
2022-08-22T05:19:32.319Z,99.90
2022-08-22T05:22:00.881Z,99.90
2022-08-22T05:24:39.592Z,99.90
2022-08-22T05:27:18.144Z,99.90
2022-08-22T05:29:48.620Z,99.90
2022-08-22T05:32:27.388Z,99.90
2022-08-22T05:34:59.691Z,99.90
2022-08-22T05:37:39.144Z,99.90
2022-08-22T05:40:07.448Z,99.90
2022-08-22T05:42:37.297Z,99.90
2022-08-22T05:45:08.554Z,99.90
2022-08-22T05:47:46.722Z,99.90
2022-08-22T05:50:18.394Z,99.90
2022-08-22T05:53:06.906Z,99.90
2022-08-22T05:55:39.496Z,99.90
2022-08-22T05:58:46.093Z,99.90
2022-08-22T06:01:37.111Z,99.90
2022-08-22T06:04:25.837Z,99.90
2022-08-22T06:07:01.385Z,99.90
2022-08-22T06:09:46.774Z,99.90
2022-08-22T06:12:44.962Z,99.90
2022-08-22T06:15:23.144Z,99.90
2022-08-22T06:18:06.963Z,99.90
2022-08-22T06:20:42.336Z,99.90
2022-08-22T06:23:14.639Z,99.90
2022-08-22T06:25:45.551Z,99.90
2022-08-22T06:28:17.784Z,99.90
2022-08-22T06:30:46.236Z,99.90
2022-08-22T06:33:19.041Z,99.90
2022-08-22T06:36:30.891Z,99.90
2022-08-22T06:39:25.616Z,99.90
2022-08-22T06:42:12.124Z,99.90
2022-08-22T06:44:47.795Z,99.90
2022-08-22T06:47:37.753Z,99.90
2022-08-22T06:50:13.771Z,99.90
2022-08-22T06:52:59.814Z,99.90
2022-08-22T06:55:29.072Z,99.90
2022-08-22T06:58:05.831Z,99.90
2022-08-22T07:00:35.361Z,99.90
2022-08-22T07:03:28.140Z,99.90
2022-08-22T07:05:57.189Z,99.90
2022-08-22T07:08:26.506Z,99.90
2022-08-22T07:11:05.582Z,99.90
2022-08-22T07:13:35.392Z,99.90
2022-08-22T07:16:06.912Z,99.90
2022-08-22T07:18:34.417Z,99.90
2022-08-22T07:21:04.834Z,99.90
2022-08-22T07:23:36.204Z,99.90
2022-08-22T07:26:09.886Z,99.90
2022-08-22T07:28:58.404Z,99.90
2022-08-22T07:31:25.677Z,99.90
2022-08-22T07:34:18.289Z,99.90
2022-08-22T07:37:06.755Z,99.90
2022-08-22T07:39:52.064Z,99.90
2022-08-22T07:43:02.329Z,99.90
2022-08-22T07:45:46.714Z,93.60
2022-08-22T07:48:38.259Z,86.80
2022-08-22T07:51:15.922Z,77.60
2022-08-22T07:53:45.158Z,66.90
2022-08-22T07:56:21.214Z,60.10
2022-08-22T07:58:53.794Z,57.00
2022-08-22T08:01:23.442Z,56.00
2022-08-22T08:03:55.798Z,55.10
2022-08-22T08:06:25.026Z,52.90
2022-08-22T08:08:53.615Z,52.90
2022-08-22T08:11:23.197Z,52.00
2022-08-22T08:13:54.438Z,52.00
2022-08-22T08:16:26.884Z,49.80
2022-08-22T08:18:58.493Z,50.60
2022-08-22T08:21:37.196Z,48.40
2022-08-22T08:24:07.708Z,48.20
2022-08-22T08:26:39.959Z,48.20
2022-08-22T08:29:07.368Z,48.00
2022-08-22T08:31:44.735Z,45.00
2022-08-22T08:34:25.829Z,42.60
2022-08-22T08:36:54.829Z,42.90
2022-08-22T08:39:39.292Z,43.20
2022-08-22T08:42:18.255Z,41.00
2022-08-22T08:45:11.331Z,42.00
2022-08-22T08:47:58.516Z,40.50
2022-08-22T08:50:34.616Z,39.90
2022-08-22T08:53:51.164Z,41.00
2022-08-22T08:56:19.878Z,38.70
2022-08-22T08:59:12.351Z,38.10
2022-08-22T09:02:04.060Z,38.90
2022-08-22T09:04:56.230Z,38.30
2022-08-22T09:07:36.963Z,38.10
2022-08-22T09:10:33.633Z,36.10
2022-08-22T09:13:28.244Z,36.10
2022-08-22T09:16:23.154Z,37.20
2022-08-22T09:19:11.162Z,36.80
2022-08-22T09:21:40.788Z,36.20
2022-08-22T09:24:45.015Z,35.20
2022-08-22T09:27:18.527Z,34.70
2022-08-22T09:30:02.439Z,34.90
2022-08-22T09:32:44.094Z,34.70
2022-08-22T09:35:29.785Z,35.90
2022-08-22T09:38:13.074Z,36.60
2022-08-22T09:40:48.103Z,35.50
2022-08-22T09:43:39.612Z,35.40
2022-08-22T09:46:32.051Z,35.40
2022-08-22T09:49:16.379Z,36.20
2022-08-22T09:51:55.487Z,35.70
2022-08-22T09:54:32.753Z,36.10
2022-08-22T09:57:23.409Z,36.70
2022-08-22T10:00:05.488Z,35.60
2022-08-22T10:02:53.955Z,34.70
2022-08-22T10:05:43.613Z,35.30
2022-08-22T10:08:30.589Z,34.90
2022-08-22T10:11:20.991Z,33.90
2022-08-22T10:14:01.445Z,33.30
2022-08-22T10:17:05.622Z,34.10
2022-08-22T10:19:40.323Z,35.40
2022-08-22T10:22:21.960Z,36.70
2022-08-22T10:24:58.636Z,38.80
2022-08-22T10:27:41.221Z,38.70
2022-08-22T10:30:25.437Z,39.40
2022-08-22T10:33:26.450Z,38.40
2022-08-22T10:36:12.004Z,37.40
2022-08-22T10:38:50.825Z,38.70
2022-08-22T10:41:41.507Z,39.80
2022-08-22T10:44:24.300Z,41.80
2022-08-22T10:47:08.978Z,40.80
2022-08-22T10:49:40.443Z,40.80
2022-08-22T10:52:19.732Z,39.20
2022-08-22T10:55:05.732Z,39.80
2022-08-22T10:58:06.442Z,41.70
2022-08-22T11:00:46.106Z,43.70
2022-08-22T11:03:42.228Z,44.70
2022-08-22T11:06:27.839Z,44.70
2022-08-22T11:09:36.300Z,45.00
2022-08-22T11:12:34.520Z,43.00
2022-08-22T11:15:11.874Z,42.80
2022-08-22T11:18:13.132Z,40.60
2022-08-22T11:21:01.914Z,39.00
2022-08-22T11:23:56.724Z,37.60
2022-08-22T11:26:49.842Z,37.90
2022-08-22T11:29:39.084Z,40.30
2022-08-22T11:32:57.967Z,42.20
2022-08-22T11:35:37.719Z,42.90
2022-08-22T11:38:15.963Z,44.80
2022-08-22T11:41:02.670Z,45.60
2022-08-22T11:43:41.253Z,46.20
2022-08-22T11:46:35.351Z,45.00
2022-08-22T11:49:05.670Z,43.80
2022-08-22T11:51:53.485Z,42.20
2022-08-22T11:54:42.365Z,41.30
2022-08-22T11:57:21.389Z,40.30
2022-08-22T12:00:25.229Z,39.00
2022-08-22T12:03:16.353Z,38.20
2022-08-22T12:06:15.081Z,36.50
2022-08-22T12:08:46.174Z,37.60
2022-08-22T12:11:29.952Z,36.20
2022-08-22T12:14:06.846Z,37.70
2022-08-22T12:16:48.694Z,38.90
2022-08-22T12:19:27.425Z,38.20
2022-08-22T12:22:34.749Z,39.70
2022-08-22T12:25:24.279Z,42.20
2022-08-22T12:28:11.562Z,41.20
2022-08-22T12:31:00.821Z,42.90
2022-08-22T12:33:38.607Z,43.70
2022-08-22T12:36:24.744Z,42.90
2022-08-22T12:39:24.461Z,43.10
2022-08-22T12:42:29.279Z,43.40
2022-08-22T12:45:23.052Z,43.40
2022-08-22T12:48:00.831Z,43.50
2022-08-22T12:50:56.436Z,42.90
2022-08-22T12:54:07.781Z,43.10
2022-08-22T12:56:41.178Z,44.30
2022-08-22T12:59:26.051Z,43.30
2022-08-22T13:01:56.490Z,42.10
2022-08-22T13:04:34.293Z,41.90
2022-08-22T13:07:30.500Z,42.80
2022-08-22T13:10:17.573Z,43.70
2022-08-22T13:12:47.214Z,42.90
2022-08-22T13:15:23.273Z,43.00
2022-08-22T13:17:54.402Z,42.50
2022-08-22T13:20:35.925Z,42.40
2022-08-22T13:23:19.437Z,42.20
2022-08-22T13:26:09.481Z,41.70
2022-08-22T13:29:24.161Z,41.10
2022-08-22T13:31:53.333Z,42.30
2022-08-22T13:34:44.790Z,41.90
2022-08-22T13:37:16.972Z,41.50
2022-08-22T13:39:47.470Z,42.30
2022-08-22T13:42:27.738Z,42.90
2022-08-22T13:45:02.583Z,43.00
2022-08-22T13:47:32.424Z,42.70
2022-08-22T13:50:16.666Z,42.70
2022-08-22T13:53:01.752Z,42.10
2022-08-22T13:55:49.545Z,43.30
2022-08-22T13:58:57.809Z,43.90
2022-08-22T14:02:02.530Z,43.90
2022-08-22T14:04:36.194Z,43.50
2022-08-22T14:07:06.109Z,43.50
2022-08-22T14:09:55.000Z,45.10
2022-08-22T14:12:56.331Z,44.60
2022-08-22T14:15:44.848Z,45.30
2022-08-22T14:18:31.719Z,46.00
2022-08-22T14:21:39.935Z,45.90
2022-08-22T14:24:26.927Z,46.60
2022-08-22T14:27:07.816Z,46.30
2022-08-22T14:29:57.913Z,46.00
2022-08-22T14:32:26.015Z,47.00
2022-08-22T14:35:23.250Z,46.80
2022-08-22T14:38:30.018Z,46.70
2022-08-22T14:41:14.210Z,46.60
2022-08-22T14:43:55.170Z,46.80
2022-08-22T14:46:47.722Z,46.40
2022-08-22T14:49:20.230Z,46.20
2022-08-22T14:52:02.234Z,45.40
2022-08-22T14:54:30.892Z,45.00
2022-08-22T14:56:59.799Z,45.60
2022-08-22T14:59:52.853Z,45.10
2022-08-22T15:02:29.390Z,45.30
2022-08-22T15:04:58.408Z,44.60
2022-08-22T15:07:26.740Z,44.80
2022-08-22T15:10:01.109Z,44.80
2022-08-22T15:12:35.448Z,44.70
2022-08-22T15:15:30.605Z,44.20
2022-08-22T15:17:57.760Z,43.80
2022-08-22T15:20:36.233Z,43.10
2022-08-22T15:23:14.752Z,42.50
2022-08-22T15:25:47.078Z,42.30
2022-08-22T15:28:17.168Z,42.70
2022-08-22T15:31:06.109Z,42.40
2022-08-22T15:33:43.356Z,43.20
2022-08-22T15:36:16.413Z,42.70
2022-08-22T15:38:46.901Z,41.70
2022-08-22T15:41:36.031Z,42.30
2022-08-22T15:44:14.913Z,42.10
2022-08-22T15:47:34.980Z,41.90
2022-08-22T15:50:09.389Z,42.90
2022-08-22T15:53:19.269Z,43.40
2022-08-22T15:56:06.794Z,43.40
2022-08-22T15:58:37.872Z,44.50
2022-08-22T16:01:20.063Z,44.50
2022-08-22T16:04:06.311Z,46.00
2022-08-22T16:07:01.243Z,47.70
2022-08-22T16:09:40.403Z,48.10
2022-08-22T16:12:13.848Z,48.90
2022-08-22T16:14:50.037Z,48.20
2022-08-22T16:17:29.146Z,49.50
2022-08-22T16:20:09.998Z,48.90
2022-08-22T16:22:58.359Z,49.00
2022-08-22T16:25:46.867Z,49.80
2022-08-22T16:28:57.297Z,49.40
2022-08-22T16:32:01.040Z,50.10
2022-08-22T16:34:41.595Z,50.10
2022-08-22T16:37:18.195Z,50.20
2022-08-22T16:39:58.333Z,50.80
2022-08-22T16:42:35.898Z,50.80
2022-08-22T16:45:02.778Z,51.30
2022-08-22T16:47:41.517Z,50.20
2022-08-22T16:50:23.372Z,50.30
2022-08-22T16:53:02.262Z,50.80
2022-08-22T16:55:29.137Z,51.70
2022-08-22T16:58:17.792Z,51.10
2022-08-22T17:01:18.384Z,51.20
2022-08-22T17:04:09.506Z,51.00
2022-08-22T17:06:36.351Z,51.00
2022-08-22T17:09:23.614Z,50.60
2022-08-22T17:12:05.623Z,51.40
2022-08-22T17:14:41.253Z,51.30
2022-08-22T17:17:35.305Z,52.30
2022-08-22T17:20:05.228Z,52.80
2022-08-22T17:22:37.337Z,52.60
2022-08-22T17:25:22.521Z,53.30
2022-08-22T17:28:13.563Z,53.80
2022-08-22T17:30:45.961Z,54.20
2022-08-22T17:33:28.553Z,55.10
2022-08-22T17:36:26.740Z,55.30
2022-08-22T17:39:23.392Z,55.20
2022-08-22T17:42:44.731Z,55.10
2022-08-22T17:45:48.325Z,55.60
2022-08-22T17:48:26.910Z,56.30
2022-08-22T17:51:15.747Z,56.70
2022-08-22T17:53:50.645Z,56.60
2022-08-22T17:56:29.468Z,56.70
2022-08-22T17:59:10.885Z,57.20
2022-08-22T18:01:56.712Z,57.50
2022-08-22T18:04:31.288Z,58.00
2022-08-22T18:07:27.549Z,58.00
2022-08-22T18:10:07.087Z,58.30
2022-08-22T18:12:55.897Z,58.80
2022-08-22T18:15:38.901Z,59.30
2022-08-22T18:18:33.726Z,59.50
2022-08-22T18:21:07.466Z,59.70
2022-08-22T18:23:49.046Z,60.40
2022-08-22T18:26:58.363Z,60.50
2022-08-22T18:29:33.574Z,62.30
2022-08-22T18:32:14.848Z,62.50
2022-08-22T18:34:56.818Z,62.50
2022-08-22T18:37:35.732Z,63.70
2022-08-22T18:40:31.972Z,64.70
2022-08-22T18:43:26.592Z,65.10
2022-08-22T18:46:00.178Z,66.10
2022-08-22T18:49:13.598Z,65.90
2022-08-22T18:51:38.229Z,66.80
2022-08-22T18:54:05.586Z,66.50
2022-08-22T18:56:50.984Z,67.00
2022-08-22T18:59:49.419Z,68.00
2022-08-22T19:02:35.138Z,67.80
2022-08-22T19:05:14.279Z,68.90
2022-08-22T19:08:00.022Z,70.00
2022-08-22T19:10:41.923Z,70.10
2022-08-22T19:13:20.324Z,70.90
2022-08-22T19:15:56.090Z,71.40
2022-08-22T19:18:44.201Z,71.90
2022-08-22T19:21:32.979Z,71.20
2022-08-22T19:24:00.397Z,72.20
2022-08-22T19:26:29.398Z,72.90
2022-08-22T19:29:00.941Z,73.80
2022-08-22T19:31:41.201Z,74.20
2022-08-22T19:34:29.283Z,75.30
2022-08-22T19:37:32.370Z,75.90
2022-08-22T19:40:07.818Z,77.00
2022-08-22T19:42:38.185Z,78.40
2022-08-22T19:45:18.382Z,80.10
2022-08-22T19:47:55.381Z,82.20
2022-08-22T19:50:23.210Z,84.20
2022-08-22T19:53:24.597Z,86.60
2022-08-22T19:56:05.192Z,89.80
2022-08-22T19:58:38.242Z,92.60
2022-08-22T20:01:56.106Z,94.00
2022-08-22T20:04:49.132Z,97.20
2022-08-22T20:07:24.966Z,99.90
2022-08-22T20:10:13.558Z,99.90
2022-08-22T20:13:05.535Z,99.90
2022-08-22T20:16:13.645Z,99.90
2022-08-22T20:19:08.430Z,99.90
2022-08-22T20:21:40.794Z,99.90
2022-08-22T20:24:29.808Z,99.90
2022-08-22T20:27:15.719Z,99.90
2022-08-22T20:29:53.107Z,99.90
2022-08-22T20:32:23.122Z,99.90
2022-08-22T20:35:23.044Z,99.90
2022-08-22T20:38:06.627Z,99.90
2022-08-22T20:41:11.666Z,99.90
2022-08-22T20:43:49.928Z,99.90
2022-08-22T20:46:38.732Z,99.90
2022-08-22T20:49:19.832Z,99.90
2022-08-22T20:51:53.108Z,99.90
2022-08-22T20:54:24.209Z,99.90
2022-08-22T20:56:57.833Z,99.90
2022-08-22T20:59:30.987Z,99.90
2022-08-22T21:02:02.833Z,99.90
2022-08-22T21:04:54.747Z,99.90
2022-08-22T21:07:25.910Z,99.90
2022-08-22T21:10:26.362Z,99.90
2022-08-22T21:13:10.187Z,99.90
2022-08-22T21:15:38.978Z,99.90
2022-08-22T21:18:06.359Z,99.90
2022-08-22T21:20:37.116Z,99.90
2022-08-22T21:23:14.798Z,99.90
2022-08-22T21:26:00.344Z,99.90
2022-08-22T21:28:50.193Z,99.90
2022-08-22T21:31:31.344Z,99.90
2022-08-22T21:33:58.763Z,99.90
2022-08-22T21:36:28.754Z,99.90
2022-08-22T21:39:03.717Z,99.90
2022-08-22T21:41:41.361Z,99.90
2022-08-22T21:44:39.229Z,99.90
2022-08-22T21:47:30.667Z,99.90
2022-08-22T21:50:23.240Z,99.90
2022-08-22T21:52:56.203Z,99.90
2022-08-22T21:55:35.839Z,99.90
2022-08-22T21:58:34.188Z,99.90
2022-08-22T22:01:29.325Z,99.90
2022-08-22T22:03:58.858Z,99.90
2022-08-22T22:06:26.084Z,99.90
2022-08-22T22:08:52.917Z,99.90
2022-08-22T22:11:19.783Z,99.90
2022-08-22T22:13:46.907Z,99.90
2022-08-22T22:16:18.175Z,99.90
2022-08-22T22:18:44.955Z,99.90
2022-08-22T22:21:11.781Z,99.90
2022-08-22T22:23:38.628Z,99.90
2022-08-22T22:26:05.876Z,99.90
2022-08-22T22:28:38.906Z,99.90
2022-08-22T22:31:06.785Z,99.90
2022-08-22T22:33:36.626Z,99.90
2022-08-22T22:36:09.027Z,99.90
2022-08-22T22:38:37.620Z,99.90
2022-08-22T22:41:04.607Z,99.90
2022-08-22T22:43:32.058Z,99.90
2022-08-22T22:45:59.134Z,99.90
2022-08-22T22:48:25.996Z,99.90
2022-08-22T22:50:53.926Z,99.90
2022-08-22T22:53:37.929Z,99.90
2022-08-22T22:56:11.801Z,99.90
2022-08-22T22:58:38.974Z,99.90
2022-08-22T23:01:13.552Z,99.90
2022-08-22T23:03:40.843Z,99.90
2022-08-22T23:06:16.695Z,99.90
2022-08-22T23:08:44.112Z,99.90
2022-08-22T23:11:15.388Z,99.90
2022-08-22T23:13:43.207Z,99.90
2022-08-22T23:16:18.502Z,99.90
2022-08-22T23:18:46.363Z,99.90
2022-08-22T23:21:29.663Z,99.90
2022-08-22T23:24:00.809Z,99.90
2022-08-22T23:26:28.676Z,99.90
2022-08-22T23:28:56.189Z,99.90
2022-08-22T23:31:33.472Z,99.90
2022-08-22T23:34:07.388Z,99.90
2022-08-22T23:36:34.532Z,99.90
2022-08-22T23:39:01.726Z,99.90
2022-08-22T23:41:29.021Z,99.90
2022-08-22T23:43:55.995Z,99.90
2022-08-22T23:46:25.443Z,99.90
2022-08-22T23:48:52.861Z,99.90
2022-08-22T23:51:23.576Z,99.90
2022-08-22T23:53:51.977Z,99.90
2022-08-22T23:56:41.354Z,99.90
2022-08-22T23:59:13.110Z,99.90
